Dr.kaiyo — JD2325 — position and weather

sailwx.info

Track history (hours):
 
Tides and Currents Weather Stations Pressure Air Temp Water Temp Dewpoint Dewpoint Depression Visibility Wind Speed Wind Dir Waves Ship Positions

Dr.kaiyo

Last reported at 2017-Feb-17 05:33 UTC. Time now 2017-Feb-20 22:30 UTC.
Position N 34°41' E 135°13'.

Length 31 m.

Type: Other ship. MMSI: 431301823.

Date/timePositionNaut miles runAvg speedWind from/ knotsBaromVisibWave heightAir tempDewpointWater temp
2017-Feb-17 05:33N 34°41' E 135°13'8 7.8
2017-Feb-17 04:33N 34°37' E 135°05'8 6.0
2017-Feb-17 03:14N 34°29' E 135°04'6 9.1
2017-Feb-17 02:33N 34°32' E 135°10'9 7.4
2017-Feb-17 01:24N 34°34' E 135°21'7 7.9
2017-Feb-17 00:33N 34°40' E 135°21'5 5.4
2017-Feb-16 23:33N 34°41' E 135°14'2 1.7
2017-Feb-16 22:33N 34°41' E 135°12'0 0.0
2017-Feb-16 05:26N 34°41' E 135°12'6 7.0
2017-Feb-16 04:33N 34°38' E 135°18'10 4.9
2017-Feb-16 02:33N 34°28' E 135°19'1 0.5
2017-Feb-16 01:20N 34°28' E 135°20'1 1.3
2017-Feb-16 00:31N 34°29' E 135°19'1212.6
2017-Feb-15 23:33N 34°41' E 135°14'2 2.0
2017-Feb-15 22:33N 34°41' E 135°12'0 0.0
2017-Feb-15 05:11N 34°41' E 135°12'5 7.6
2017-Feb-15 04:33N 34°38' E 135°17'6 5.7
2017-Feb-15 03:33N 34°35' E 135°22'2 2.5
2017-Feb-15 02:33N 34°32' E 135°21'1110.5
2017-Feb-15 01:32N 34°26' E 135°11'1313.5
2017-Feb-15 00:33N 34°39' E 135°11'3 2.7
2017-Feb-14 23:33N 34°41' E 135°12'0 0.0
2017-Feb-14 05:33N 34°41' E 135°12'8 7.7
2017-Feb-14 04:33N 34°34' E 135°16'5 5.0
2017-Feb-14 03:30N 34°32' E 135°22'3 3.7
2017-Feb-14 02:33N 34°30' E 135°18'1312.9
2017-Feb-14 01:33N 34°30' E 135°02'1212.0
2017-Feb-14 00:33N 34°40' E 135°11'2 2.1
2017-Feb-13 23:33N 34°41' E 135°12'0 0.0
2017-Feb-13 05:33N 34°41' E 135°12'6 6.0
2017-Feb-13 04:34N 34°37' E 135°08'10 7.7
2017-Feb-13 03:17N 34°28' E 135°02'810.3
2017-Feb-13 02:32N 34°32' E 135°10'8 8.5
2017-Feb-13 01:33N 34°32' E 135°20'9 8.6
2017-Feb-13 00:33N 34°40' E 135°21'6 5.9
2017-Feb-12 23:33N 34°41' E 135°14'1 1.2
2017-Feb-12 22:33N 34°41' E 135°12'  
2017-Feb-10 02:11N 34°41' E 135°12'5 7.5
2017-Feb-10 01:33N 34°38' E 135°16'11 9.9
2017-Feb-10 00:29N 34°28' E 135°20'1313.5
2017-Feb-09 23:33N 34°40' E 135°15'3 2.8
2017-Feb-09 22:33N 34°41' E 135°12'0 0.0
2017-Feb-09 08:31N 34°41' E 135°12'9 9.2
2017-Feb-09 07:33N 34°34' E 135°18'7 6.7
2017-Feb-09 06:34N 34°27' E 135°19'1 0.9
2017-Feb-09 05:33N 34°28' E 135°20'0 0.2
2017-Feb-09 04:26N 34°28' E 135°20'0 0.1
2017-Feb-09 03:21N 34°28' E 135°20'1 0.7
2017-Feb-09 02:32N 34°27' E 135°20'1 0.5
2017-Feb-09 01:32N 34°28' E 135°20'1 0.7
2017-Feb-09 00:26N 34°29' E 135°20'1213.4
2017-Feb-08 23:33N 34°40' E 135°15'3 3.0
2017-Feb-08 22:33N 34°41' E 135°12'0 0.0
2017-Feb-08 08:17N 34°41' E 135°12'7 9.2
2017-Feb-08 07:33N 34°37' E 135°18'7 6.3
2017-Feb-08 06:23N 34°30' E 135°22'0 0.2
2017-Feb-08 05:32N 34°30' E 135°22'0 0.1
2017-Feb-08 04:19N 34°30' E 135°22'0 0.1
2017-Feb-08 03:32N 34°30' E 135°22'0 0.1
2017-Feb-08 02:26N 34°30' E 135°22'0 0.2
2017-Feb-08 01:33N 34°30' E 135°22'0 0.2
2017-Feb-08 00:33N 34°30' E 135°22'1110.7
2017-Feb-07 23:33N 34°39' E 135°16'4 3.8
2017-Feb-07 22:33N 34°41' E 135°12'0 0.0
2017-Feb-07 07:12N 34°41' E 135°12'5 7.9
2017-Feb-07 06:34N 34°38' E 135°17'  
Track history (hours):
 
Tides and Currents Weather Stations Pressure Air Temp Water Temp Dewpoint Dewpoint Depression Visibility Wind Speed Wind Dir Waves Ship Positions

Dr.kaiyo

Last reported at 2017-Feb-17 05:33 UTC. Time now 2017-Feb-20 22:30 UTC.
Position N 34°41' E 135°13'.

Length 31 m.

Type: Other ship. MMSI: 431301823.

Date/timePositionNaut miles runAvg speedWind from/ knotsBaromVisibWave heightAir tempDewpointWater temp
2017-Feb-17 05:33N 34°41' E 135°13'8 7.8
2017-Feb-17 04:33N 34°37' E 135°05'8 6.0
2017-Feb-17 03:14N 34°29' E 135°04'6 9.1
2017-Feb-17 02:33N 34°32' E 135°10'9 7.4
2017-Feb-17 01:24N 34°34' E 135°21'7 7.9
2017-Feb-17 00:33N 34°40' E 135°21'5 5.4
2017-Feb-16 23:33N 34°41' E 135°14'2 1.7
2017-Feb-16 22:33N 34°41' E 135°12'0 0.0
2017-Feb-16 05:26N 34°41' E 135°12'6 7.0
2017-Feb-16 04:33N 34°38' E 135°18'10 4.9
2017-Feb-16 02:33N 34°28' E 135°19'1 0.5
2017-Feb-16 01:20N 34°28' E 135°20'1 1.3
2017-Feb-16 00:31N 34°29' E 135°19'1212.6
2017-Feb-15 23:33N 34°41' E 135°14'2 2.0
2017-Feb-15 22:33N 34°41' E 135°12'0 0.0
2017-Feb-15 05:11N 34°41' E 135°12'5 7.6
2017-Feb-15 04:33N 34°38' E 135°17'6 5.7
2017-Feb-15 03:33N 34°35' E 135°22'2 2.5
2017-Feb-15 02:33N 34°32' E 135°21'1110.5
2017-Feb-15 01:32N 34°26' E 135°11'1313.5
2017-Feb-15 00:33N 34°39' E 135°11'3 2.7
2017-Feb-14 23:33N 34°41' E 135°12'0 0.0
2017-Feb-14 05:33N 34°41' E 135°12'8 7.7
2017-Feb-14 04:33N 34°34' E 135°16'5 5.0
2017-Feb-14 03:30N 34°32' E 135°22'3 3.7
2017-Feb-14 02:33N 34°30' E 135°18'1312.9
2017-Feb-14 01:33N 34°30' E 135°02'1212.0
2017-Feb-14 00:33N 34°40' E 135°11'2 2.1
2017-Feb-13 23:33N 34°41' E 135°12'0 0.0
2017-Feb-13 05:33N 34°41' E 135°12'6 6.0
2017-Feb-13 04:34N 34°37' E 135°08'10 7.7
2017-Feb-13 03:17N 34°28' E 135°02'810.3
2017-Feb-13 02:32N 34°32' E 135°10'8 8.5
2017-Feb-13 01:33N 34°32' E 135°20'9 8.6
2017-Feb-13 00:33N 34°40' E 135°21'6 5.9
2017-Feb-12 23:33N 34°41' E 135°14'1 1.2
2017-Feb-12 22:33N 34°41' E 135°12'  
2017-Feb-10 02:11N 34°41' E 135°12'5 7.5
2017-Feb-10 01:33N 34°38' E 135°16'11 9.9
2017-Feb-10 00:29N 34°28' E 135°20'1313.5
2017-Feb-09 23:33N 34°40' E 135°15'3 2.8
2017-Feb-09 22:33N 34°41' E 135°12'0 0.0
2017-Feb-09 08:31N 34°41' E 135°12'9 9.2
2017-Feb-09 07:33N 34°34' E 135°18'7 6.7
2017-Feb-09 06:34N 34°27' E 135°19'1 0.9
2017-Feb-09 05:33N 34°28' E 135°20'0 0.2
2017-Feb-09 04:26N 34°28' E 135°20'0 0.1
2017-Feb-09 03:21N 34°28' E 135°20'1 0.7
2017-Feb-09 02:32N 34°27' E 135°20'1 0.5
2017-Feb-09 01:32N 34°28' E 135°20'1 0.7
2017-Feb-09 00:26N 34°29' E 135°20'1213.4
2017-Feb-08 23:33N 34°40' E 135°15'3 3.0
2017-Feb-08 22:33N 34°41' E 135°12'0 0.0
2017-Feb-08 08:17N 34°41' E 135°12'7 9.2
2017-Feb-08 07:33N 34°37' E 135°18'7 6.3
2017-Feb-08 06:23N 34°30' E 135°22'0 0.2
2017-Feb-08 05:32N 34°30' E 135°22'0 0.1
2017-Feb-08 04:19N 34°30' E 135°22'0 0.1
2017-Feb-08 03:32N 34°30' E 135°22'0 0.1
2017-Feb-08 02:26N 34°30' E 135°22'0 0.2
2017-Feb-08 01:33N 34°30' E 135°22'0 0.2
2017-Feb-08 00:33N 34°30' E 135°22'1110.7
2017-Feb-07 23:33N 34°39' E 135°16'4 3.8
2017-Feb-07 22:33N 34°41' E 135°12'0 0.0
2017-Feb-07 07:12N 34°41' E 135°12'5 7.9
2017-Feb-07 06:34N 34°38' E 135°17'  

Dump ship's entire track history